sensor_id;sensor_type;location;lat;lon;timestamp;P1;durP1;ratioP1;P2;durP2;ratioP2
19525;SDS011;9907;42.676;26.348;2024-02-21T00:01:14;19.60;;;16.13;;
19525;SDS011;9907;42.676;26.348;2024-02-21T00:04:15;18.83;;;15.37;;
19525;SDS011;9907;42.676;26.348;2024-02-21T00:06:41;18.47;;;16.40;;
19525;SDS011;9907;42.676;26.348;2024-02-21T00:09:06;17.67;;;15.23;;
19525;SDS011;9907;42.676;26.348;2024-02-21T00:11:32;19.00;;;15.07;;
19525;SDS011;9907;42.676;26.348;2024-02-21T00:13:57;21.77;;;16.13;;
19525;SDS011;9907;42.676;26.348;2024-02-21T00:16:23;33.73;;;17.03;;
19525;SDS011;9907;42.676;26.348;2024-02-21T00:18:48;17.43;;;13.30;;
19525;SDS011;9907;42.676;26.348;2024-02-21T00:21:14;15.27;;;13.50;;
19525;SDS011;9907;42.676;26.348;2024-02-21T00:27:09;14.80;;;12.80;;
19525;SDS011;9907;42.676;26.348;2024-02-21T00:29:40;15.40;;;13.73;;
19525;SDS011;9907;42.676;26.348;2024-02-21T00:33:04;14.83;;;12.87;;
19525;SDS011;9907;42.676;26.348;2024-02-21T00:35:56;16.03;;;13.07;;
19525;SDS011;9907;42.676;26.348;2024-02-21T00:38:22;15.60;;;13.03;;
19525;SDS011;9907;42.676;26.348;2024-02-21T00:40:47;16.37;;;13.80;;
19525;SDS011;9907;42.676;26.348;2024-02-21T00:43:13;16.10;;;13.40;;
19525;SDS011;9907;42.676;26.348;2024-02-21T00:45:38;17.37;;;15.00;;
19525;SDS011;9907;42.676;26.348;2024-02-21T00:51:25;22.40;;;17.90;;
19525;SDS011;9907;42.676;26.348;2024-02-21T00:53:51;23.97;;;19.20;;
19525;SDS011;9907;42.676;26.348;2024-02-21T00:56:35;23.50;;;18.60;;
19525;SDS011;9907;42.676;26.348;2024-02-21T00:59:00;23.43;;;19.07;;
19525;SDS011;9907;42.676;26.348;2024-02-21T01:01:26;21.97;;;18.10;;
19525;SDS011;9907;42.676;26.348;2024-02-21T01:03:51;22.57;;;17.57;;
19525;SDS011;9907;42.676;26.348;2024-02-21T01:06:31;22.60;;;17.87;;
19525;SDS011;9907;42.676;26.348;2024-02-21T01:08:56;20.83;;;17.07;;
19525;SDS011;9907;42.676;26.348;2024-02-21T01:11:22;21.83;;;17.17;;
19525;SDS011;9907;42.676;26.348;2024-02-21T01:13:47;19.13;;;16.53;;
19525;SDS011;9907;42.676;26.348;2024-02-21T01:16:13;18.10;;;14.80;;
19525;SDS011;9907;42.676;26.348;2024-02-21T01:18:38;19.73;;;15.90;;
19525;SDS011;9907;42.676;26.348;2024-02-21T01:21:24;17.43;;;15.10;;
19525;SDS011;9907;42.676;26.348;2024-02-21T01:24:19;16.80;;;15.00;;
19525;SDS011;9907;42.676;26.348;2024-02-21T01:27:08;17.60;;;14.27;;
19525;SDS011;9907;42.676;26.348;2024-02-21T01:32:55;16.13;;;13.03;;
19525;SDS011;9907;42.676;26.348;2024-02-21T01:35:21;15.10;;;13.50;;
19525;SDS011;9907;42.676;26.348;2024-02-21T01:37:46;15.40;;;13.10;;
19525;SDS011;9907;42.676;26.348;2024-02-21T01:40:14;14.47;;;12.93;;
19525;SDS011;9907;42.676;26.348;2024-02-21T01:42:40;16.27;;;13.63;;
19525;SDS011;9907;42.676;26.348;2024-02-21T01:51:54;19.07;;;14.83;;
19525;SDS011;9907;42.676;26.348;2024-02-21T01:54:20;19.47;;;14.63;;
19525;SDS011;9907;42.676;26.348;2024-02-21T01:56:46;17.67;;;14.77;;
19525;SDS011;9907;42.676;26.348;2024-02-21T01:59:13;18.97;;;15.50;;
19525;SDS011;9907;42.676;26.348;2024-02-21T02:01:40;16.53;;;14.70;;
19525;SDS011;9907;42.676;26.348;2024-02-21T02:04:06;15.80;;;14.10;;
19525;SDS011;9907;42.676;26.348;2024-02-21T02:06:51;16.57;;;14.40;;
19525;SDS011;9907;42.676;26.348;2024-02-21T02:09:17;15.40;;;13.50;;
19525;SDS011;9907;42.676;26.348;2024-02-21T02:11:43;15.90;;;13.63;;
19525;SDS011;9907;42.676;26.348;2024-02-21T02:14:09;15.33;;;13.47;;
19525;SDS011;9907;42.676;26.348;2024-02-21T02:16:34;16.90;;;14.40;;
19525;SDS011;9907;42.676;26.348;2024-02-21T02:18:59;16.13;;;14.40;;
19525;SDS011;9907;42.676;26.348;2024-02-21T02:24:47;16.80;;;14.33;;
19525;SDS011;9907;42.676;26.348;2024-02-21T02:27:48;18.07;;;14.80;;
19525;SDS011;9907;42.676;26.348;2024-02-21T02:30:17;18.53;;;14.70;;
19525;SDS011;9907;42.676;26.348;2024-02-21T02:32:44;15.83;;;14.13;;
19525;SDS011;9907;42.676;26.348;2024-02-21T02:35:11;16.57;;;14.40;;
19525;SDS011;9907;42.676;26.348;2024-02-21T02:43:08;17.20;;;13.43;;
19525;SDS011;9907;42.676;26.348;2024-02-21T02:45:33;18.23;;;13.83;;
19525;SDS011;9907;42.676;26.348;2024-02-21T02:47:59;17.60;;;14.77;;
19525;SDS011;9907;42.676;26.348;2024-02-21T02:50:25;17.07;;;15.23;;
19525;SDS011;9907;42.676;26.348;2024-02-21T02:52:51;17.37;;;14.50;;
19525;SDS011;9907;42.676;26.348;2024-02-21T02:55:20;17.83;;;14.50;;
19525;SDS011;9907;42.676;26.348;2024-02-21T02:57:45;16.17;;;14.30;;
19525;SDS011;9907;42.676;26.348;2024-02-21T03:00:11;15.10;;;13.50;;
19525;SDS011;9907;42.676;26.348;2024-02-21T03:02:38;16.13;;;14.07;;
19525;SDS011;9907;42.676;26.348;2024-02-21T03:05:11;15.67;;;13.97;;
19525;SDS011;9907;42.676;26.348;2024-02-21T03:08:14;16.43;;;13.57;;
19525;SDS011;9907;42.676;26.348;2024-02-21T03:10:40;16.60;;;14.23;;
19525;SDS011;9907;42.676;26.348;2024-02-21T03:15:59;17.00;;;14.87;;
19525;SDS011;9907;42.676;26.348;2024-02-21T05:32:42;29.77;;;21.40;;
19525;SDS011;9907;42.676;26.348;2024-02-21T05:41:48;26.10;;;21.67;;
19525;SDS011;9907;42.676;26.348;2024-02-21T05:53:15;25.57;;;20.30;;
19525;SDS011;9907;42.676;26.348;2024-02-21T05:59:17;29.00;;;20.53;;
19525;SDS011;9907;42.676;26.348;2024-02-21T06:02:27;27.03;;;21.53;;
19525;SDS011;9907;42.676;26.348;2024-02-21T06:04:53;25.57;;;19.80;;
19525;SDS011;9907;42.676;26.348;2024-02-21T06:07:19;22.77;;;19.63;;
19525;SDS011;9907;42.676;26.348;2024-02-21T06:09:45;34.80;;;21.13;;
19525;SDS011;9907;42.676;26.348;2024-02-21T06:12:10;26.47;;;20.43;;
19525;SDS011;9907;42.676;26.348;2024-02-21T06:14:36;23.67;;;20.20;;
19525;SDS011;9907;42.676;26.348;2024-02-21T06:17:04;28.67;;;21.03;;
19525;SDS011;9907;42.676;26.348;2024-02-21T06:19:30;24.07;;;20.00;;
19525;SDS011;9907;42.676;26.348;2024-02-21T06:21:55;24.77;;;20.47;;
19525;SDS011;9907;42.676;26.348;2024-02-21T06:24:21;25.80;;;20.33;;
19525;SDS011;9907;42.676;26.348;2024-02-21T06:26:47;27.73;;;21.37;;
19525;SDS011;9907;42.676;26.348;2024-02-21T06:29:13;24.37;;;20.33;;
19525;SDS011;9907;42.676;26.348;2024-02-21T06:31:38;27.23;;;21.37;;
19525;SDS011;9907;42.676;26.348;2024-02-21T06:34:07;27.30;;;20.77;;
19525;SDS011;9907;42.676;26.348;2024-02-21T06:36:33;26.07;;;22.07;;
19525;SDS011;9907;42.676;26.348;2024-02-21T06:38:59;24.10;;;20.13;;
19525;SDS011;9907;42.676;26.348;2024-02-21T06:41:24;27.93;;;22.10;;
19525;SDS011;9907;42.676;26.348;2024-02-21T06:43:50;24.63;;;22.03;;
19525;SDS011;9907;42.676;26.348;2024-02-21T06:46:27;25.83;;;21.20;;
19525;SDS011;9907;42.676;26.348;2024-02-21T06:49:02;25.00;;;20.80;;
19525;SDS011;9907;42.676;26.348;2024-02-21T06:51:30;24.93;;;21.17;;
19525;SDS011;9907;42.676;26.348;2024-02-21T06:53:55;23.13;;;20.50;;
19525;SDS011;9907;42.676;26.348;2024-02-21T06:56:24;24.27;;;20.77;;
19525;SDS011;9907;42.676;26.348;2024-02-21T06:58:58;24.73;;;20.57;;
19525;SDS011;9907;42.676;26.348;2024-02-21T07:01:24;23.43;;;20.93;;
19525;SDS011;9907;42.676;26.348;2024-02-21T07:03:50;23.33;;;20.87;;
19525;SDS011;9907;42.676;26.348;2024-02-21T07:06:16;24.10;;;19.87;;
19525;SDS011;9907;42.676;26.348;2024-02-21T07:08:41;22.10;;;19.83;;
19525;SDS011;9907;42.676;26.348;2024-02-21T07:11:08;21.63;;;19.30;;
19525;SDS011;9907;42.676;26.348;2024-02-21T07:13:33;22.47;;;20.10;;
19525;SDS011;9907;42.676;26.348;2024-02-21T07:15:59;25.90;;;19.63;;
19525;SDS011;9907;42.676;26.348;2024-02-21T07:18:26;21.33;;;19.03;;
19525;SDS011;9907;42.676;26.348;2024-02-21T07:20:54;24.50;;;19.33;;
19525;SDS011;9907;42.676;26.348;2024-02-21T07:23:20;22.60;;;18.97;;
19525;SDS011;9907;42.676;26.348;2024-02-21T07:25:46;18.73;;;16.80;;
19525;SDS011;9907;42.676;26.348;2024-02-21T07:28:11;21.33;;;17.20;;
19525;SDS011;9907;42.676;26.348;2024-02-21T07:30:38;21.47;;;18.87;;
19525;SDS011;9907;42.676;26.348;2024-02-21T07:33:04;22.00;;;19.40;;
19525;SDS011;9907;42.676;26.348;2024-02-21T07:35:29;22.77;;;18.03;;
19525;SDS011;9907;42.676;26.348;2024-02-21T07:37:55;21.97;;;19.60;;
19525;SDS011;9907;42.676;26.348;2024-02-21T07:40:20;22.83;;;19.33;;
19525;SDS011;9907;42.676;26.348;2024-02-21T07:42:46;24.67;;;21.73;;
19525;SDS011;9907;42.676;26.348;2024-02-21T07:45:13;25.00;;;21.90;;
19525;SDS011;9907;42.676;26.348;2024-02-21T07:47:38;33.77;;;28.13;;
19525;SDS011;9907;42.676;26.348;2024-02-21T07:50:04;35.27;;;31.47;;
19525;SDS011;9907;42.676;26.348;2024-02-21T07:52:34;38.47;;;34.37;;
19525;SDS011;9907;42.676;26.348;2024-02-21T07:55:01;32.23;;;28.87;;
19525;SDS011;9907;42.676;26.348;2024-02-21T07:57:28;25.90;;;23.07;;
19525;SDS011;9907;42.676;26.348;2024-02-21T07:59:53;26.30;;;19.67;;
19525;SDS011;9907;42.676;26.348;2024-02-21T08:02:20;24.97;;;19.90;;
19525;SDS011;9907;42.676;26.348;2024-02-21T08:04:46;29.23;;;20.57;;
19525;SDS011;9907;42.676;26.348;2024-02-21T08:07:12;31.10;;;21.40;;
19525;SDS011;9907;42.676;26.348;2024-02-21T08:09:39;32.80;;;22.03;;
19525;SDS011;9907;42.676;26.348;2024-02-21T08:12:05;31.90;;;24.50;;
19525;SDS011;9907;42.676;26.348;2024-02-21T08:14:31;27.93;;;22.83;;
19525;SDS011;9907;42.676;26.348;2024-02-21T08:16:56;28.07;;;21.87;;
19525;SDS011;9907;42.676;26.348;2024-02-21T08:19:22;30.30;;;21.37;;
19525;SDS011;9907;42.676;26.348;2024-02-21T08:21:49;27.20;;;20.40;;
19525;SDS011;9907;42.676;26.348;2024-02-21T08:24:15;26.53;;;20.17;;
19525;SDS011;9907;42.676;26.348;2024-02-21T08:26:40;24.80;;;19.60;;
19525;SDS011;9907;42.676;26.348;2024-02-21T08:29:07;25.80;;;19.90;;
19525;SDS011;9907;42.676;26.348;2024-02-21T08:31:32;27.97;;;21.83;;
19525;SDS011;9907;42.676;26.348;2024-02-21T08:33:59;27.40;;;22.63;;
19525;SDS011;9907;42.676;26.348;2024-02-21T08:36:29;26.73;;;22.53;;
19525;SDS011;9907;42.676;26.348;2024-02-21T08:38:56;24.67;;;21.37;;
19525;SDS011;9907;42.676;26.348;2024-02-21T08:41:22;29.13;;;22.20;;
19525;SDS011;9907;42.676;26.348;2024-02-21T08:43:49;24.87;;;20.43;;
19525;SDS011;9907;42.676;26.348;2024-02-21T08:46:16;31.10;;;22.83;;
19525;SDS011;9907;42.676;26.348;2024-02-21T08:48:44;28.43;;;22.33;;
19525;SDS011;9907;42.676;26.348;2024-02-21T08:51:11;26.90;;;19.83;;
19525;SDS011;9907;42.676;26.348;2024-02-21T08:53:37;29.90;;;23.43;;
19525;SDS011;9907;42.676;26.348;2024-02-21T08:56:03;26.83;;;21.50;;
19525;SDS011;9907;42.676;26.348;2024-02-21T08:58:29;23.37;;;20.27;;
19525;SDS011;9907;42.676;26.348;2024-02-21T09:00:54;26.47;;;20.67;;
19525;SDS011;9907;42.676;26.348;2024-02-21T09:03:20;25.73;;;21.53;;
19525;SDS011;9907;42.676;26.348;2024-02-21T09:05:45;25.33;;;21.60;;
19525;SDS011;9907;42.676;26.348;2024-02-21T09:08:11;25.57;;;21.20;;
19525;SDS011;9907;42.676;26.348;2024-02-21T09:10:39;23.57;;;20.47;;
19525;SDS011;9907;42.676;26.348;2024-02-21T09:13:04;25.53;;;22.37;;
19525;SDS011;9907;42.676;26.348;2024-02-21T09:15:33;30.03;;;20.83;;
19525;SDS011;9907;42.676;26.348;2024-02-21T09:17:58;28.90;;;24.43;;
19525;SDS011;9907;42.676;26.348;2024-02-21T09:20:24;30.00;;;24.23;;
19525;SDS011;9907;42.676;26.348;2024-02-21T09:22:49;27.90;;;23.40;;
19525;SDS011;9907;42.676;26.348;2024-02-21T09:25:15;26.67;;;21.83;;
19525;SDS011;9907;42.676;26.348;2024-02-21T09:27:40;24.00;;;20.90;;
19525;SDS011;9907;42.676;26.348;2024-02-21T09:30:07;27.53;;;21.77;;
19525;SDS011;9907;42.676;26.348;2024-02-21T09:32:33;23.43;;;20.63;;
19525;SDS011;9907;42.676;26.348;2024-02-21T09:34:58;27.60;;;21.37;;
19525;SDS011;9907;42.676;26.348;2024-02-21T09:37:24;28.00;;;20.10;;
19525;SDS011;9907;42.676;26.348;2024-02-21T09:39:49;25.57;;;20.20;;
19525;SDS011;9907;42.676;26.348;2024-02-21T09:42:18;24.73;;;20.47;;
19525;SDS011;9907;42.676;26.348;2024-02-21T09:44:46;22.63;;;20.20;;
19525;SDS011;9907;42.676;26.348;2024-02-21T09:47:17;21.83;;;18.57;;
19525;SDS011;9907;42.676;26.348;2024-02-21T09:49:50;20.50;;;18.00;;
19525;SDS011;9907;42.676;26.348;2024-02-21T09:52:17;22.33;;;18.10;;
19525;SDS011;9907;42.676;26.348;2024-02-21T09:54:53;24.63;;;18.50;;
19525;SDS011;9907;42.676;26.348;2024-02-21T09:57:19;21.20;;;18.90;;
19525;SDS011;9907;42.676;26.348;2024-02-21T09:59:45;22.97;;;20.03;;
19525;SDS011;9907;42.676;26.348;2024-02-21T10:02:11;22.87;;;18.60;;
19525;SDS011;9907;42.676;26.348;2024-02-21T10:04:42;24.33;;;18.47;;
19525;SDS011;9907;42.676;26.348;2024-02-21T10:07:08;21.80;;;17.07;;
19525;SDS011;9907;42.676;26.348;2024-02-21T10:09:37;19.93;;;17.63;;
19525;SDS011;9907;42.676;26.348;2024-02-21T10:12:10;23.07;;;18.17;;
19525;SDS011;9907;42.676;26.348;2024-02-21T10:14:40;23.30;;;18.27;;
19525;SDS011;9907;42.676;26.348;2024-02-21T10:17:08;21.57;;;19.30;;
19525;SDS011;9907;42.676;26.348;2024-02-21T10:19:50;20.73;;;18.03;;
19525;SDS011;9907;42.676;26.348;2024-02-21T10:22:18;23.97;;;18.90;;
19525;SDS011;9907;42.676;26.348;2024-02-21T10:24:51;22.17;;;18.87;;
19525;SDS011;9907;42.676;26.348;2024-02-21T10:27:19;23.43;;;18.87;;
19525;SDS011;9907;42.676;26.348;2024-02-21T10:29:49;24.87;;;19.10;;
19525;SDS011;9907;42.676;26.348;2024-02-21T10:32:15;21.77;;;18.23;;
19525;SDS011;9907;42.676;26.348;2024-02-21T10:34:41;21.37;;;18.47;;
19525;SDS011;9907;42.676;26.348;2024-02-21T10:37:08;20.50;;;18.23;;
19525;SDS011;9907;42.676;26.348;2024-02-21T10:39:36;26.00;;;19.47;;
19525;SDS011;9907;42.676;26.348;2024-02-21T10:42:06;22.47;;;18.53;;
19525;SDS011;9907;42.676;26.348;2024-02-21T10:44:33;20.50;;;18.23;;
19525;SDS011;9907;42.676;26.348;2024-02-21T10:47:10;22.60;;;20.13;;
19525;SDS011;9907;42.676;26.348;2024-02-21T10:49:42;22.47;;;19.07;;
19525;SDS011;9907;42.676;26.348;2024-02-21T10:52:28;23.70;;;19.13;;
19525;SDS011;9907;42.676;26.348;2024-02-21T10:57:37;22.40;;;19.73;;
19525;SDS011;9907;42.676;26.348;2024-02-21T11:00:04;21.40;;;18.97;;
19525;SDS011;9907;42.676;26.348;2024-02-21T11:02:33;18.97;;;17.07;;
19525;SDS011;9907;42.676;26.348;2024-02-21T11:04:59;21.83;;;17.80;;
19525;SDS011;9907;42.676;26.348;2024-02-21T11:07:30;21.07;;;16.80;;
19525;SDS011;9907;42.676;26.348;2024-02-21T11:10:00;19.73;;;17.47;;
19525;SDS011;9907;42.676;26.348;2024-02-21T11:12:26;22.13;;;17.90;;
19525;SDS011;9907;42.676;26.348;2024-02-21T11:14:52;20.33;;;17.43;;
19525;SDS011;9907;42.676;26.348;2024-02-21T11:17:30;23.70;;;17.77;;
19525;SDS011;9907;42.676;26.348;2024-02-21T11:19:56;18.83;;;16.83;;
19525;SDS011;9907;42.676;26.348;2024-02-21T11:22:22;19.53;;;16.57;;
19525;SDS011;9907;42.676;26.348;2024-02-21T11:24:54;18.77;;;16.87;;
19525;SDS011;9907;42.676;26.348;2024-02-21T11:27:23;18.50;;;16.40;;
19525;SDS011;9907;42.676;26.348;2024-02-21T11:29:57;17.93;;;16.03;;
19525;SDS011;9907;42.676;26.348;2024-02-21T11:32:25;21.10;;;17.10;;
19525;SDS011;9907;42.676;26.348;2024-02-21T11:34:55;17.63;;;15.77;;
19525;SDS011;9907;42.676;26.348;2024-02-21T11:37:32;18.40;;;15.90;;
19525;SDS011;9907;42.676;26.348;2024-02-21T11:40:00;25.23;;;16.90;;
19525;SDS011;9907;42.676;26.348;2024-02-21T11:42:26;15.43;;;13.53;;
19525;SDS011;9907;42.676;26.348;2024-02-21T11:44:52;17.17;;;13.30;;
19525;SDS011;9907;42.676;26.348;2024-02-21T11:47:21;26.73;;;14.27;;
19525;SDS011;9907;42.676;26.348;2024-02-21T11:49:48;15.23;;;13.43;;
19525;SDS011;9907;42.676;26.348;2024-02-21T11:52:17;12.77;;;11.47;;
19525;SDS011;9907;42.676;26.348;2024-02-21T11:54:44;12.67;;;11.37;;
19525;SDS011;9907;42.676;26.348;2024-02-21T11:57:09;13.97;;;12.50;;
19525;SDS011;9907;42.676;26.348;2024-02-21T11:59:36;14.37;;;12.97;;
19525;SDS011;9907;42.676;26.348;2024-02-21T12:02:01;18.83;;;15.87;;
19525;SDS011;9907;42.676;26.348;2024-02-21T12:04:29;14.37;;;12.93;;
19525;SDS011;9907;42.676;26.348;2024-02-21T12:06:58;18.83;;;14.93;;
19525;SDS011;9907;42.676;26.348;2024-02-21T12:09:24;15.67;;;14.00;;
19525;SDS011;9907;42.676;26.348;2024-02-21T12:12:01;16.67;;;14.43;;
19525;SDS011;9907;42.676;26.348;2024-02-21T12:14:29;13.50;;;12.07;;
19525;SDS011;9907;42.676;26.348;2024-02-21T12:17:01;18.83;;;15.80;;
19525;SDS011;9907;42.676;26.348;2024-02-21T12:19:30;24.53;;;21.37;;
19525;SDS011;9907;42.676;26.348;2024-02-21T12:21:59;18.90;;;15.70;;
19525;SDS011;9907;42.676;26.348;2024-02-21T12:24:28;15.03;;;12.23;;
19525;SDS011;9907;42.676;26.348;2024-02-21T12:26:55;12.20;;;10.90;;
19525;SDS011;9907;42.676;26.348;2024-02-21T12:29:22;12.53;;;11.23;;
19525;SDS011;9907;42.676;26.348;2024-02-21T12:31:49;11.90;;;10.70;;
19525;SDS011;9907;42.676;26.348;2024-02-21T12:34:15;11.93;;;10.63;;
19525;SDS011;9907;42.676;26.348;2024-02-21T12:36:42;11.77;;;10.40;;
19525;SDS011;9907;42.676;26.348;2024-02-21T12:39:12;11.23;;;10.03;;
19525;SDS011;9907;42.676;26.348;2024-02-21T12:41:38;11.00;;;9.33;;
19525;SDS011;9907;42.676;26.348;2024-02-21T12:44:04;13.60;;;11.10;;
19525;SDS011;9907;42.676;26.348;2024-02-21T12:46:37;14.57;;;12.47;;
19525;SDS011;9907;42.676;26.348;2024-02-21T12:49:03;20.47;;;16.50;;
19525;SDS011;9907;42.676;26.348;2024-02-21T12:51:29;14.40;;;12.87;;
19525;SDS011;9907;42.676;26.348;2024-02-21T12:53:55;12.67;;;11.27;;
19525;SDS011;9907;42.676;26.348;2024-02-21T12:56:21;22.73;;;20.27;;
19525;SDS011;9907;42.676;26.348;2024-02-21T12:58:47;15.47;;;13.83;;
19525;SDS011;9907;42.676;26.348;2024-02-21T13:01:13;15.73;;;13.30;;
19525;SDS011;9907;42.676;26.348;2024-02-21T13:03:39;14.67;;;12.67;;
19525;SDS011;9907;42.676;26.348;2024-02-21T13:06:05;14.77;;;13.20;;
19525;SDS011;9907;42.676;26.348;2024-02-21T13:08:31;14.67;;;13.17;;
19525;SDS011;9907;42.676;26.348;2024-02-21T13:10:59;16.90;;;13.47;;
19525;SDS011;9907;42.676;26.348;2024-02-21T13:13:25;15.40;;;13.13;;
19525;SDS011;9907;42.676;26.348;2024-02-21T13:15:50;14.17;;;12.73;;
19525;SDS011;9907;42.676;26.348;2024-02-21T13:18:15;13.63;;;12.23;;
19525;SDS011;9907;42.676;26.348;2024-02-21T13:20:41;13.20;;;11.80;;
19525;SDS011;9907;42.676;26.348;2024-02-21T13:23:06;12.80;;;11.47;;
19525;SDS011;9907;42.676;26.348;2024-02-21T13:25:33;13.37;;;11.97;;
19525;SDS011;9907;42.676;26.348;2024-02-21T13:27:58;13.37;;;11.90;;
19525;SDS011;9907;42.676;26.348;2024-02-21T13:30:24;14.23;;;12.73;;
19525;SDS011;9907;42.676;26.348;2024-02-21T13:32:50;15.93;;;13.43;;
19525;SDS011;9907;42.676;26.348;2024-02-21T13:35:16;14.10;;;12.60;;
19525;SDS011;9907;42.676;26.348;2024-02-21T13:37:43;13.23;;;11.87;;
19525;SDS011;9907;42.676;26.348;2024-02-21T13:40:08;13.67;;;12.20;;
19525;SDS011;9907;42.676;26.348;2024-02-21T13:42:36;13.80;;;12.30;;
19525;SDS011;9907;42.676;26.348;2024-02-21T13:45:03;13.17;;;11.77;;
19525;SDS011;9907;42.676;26.348;2024-02-21T13:47:33;13.70;;;12.30;;
19525;SDS011;9907;42.676;26.348;2024-02-21T13:49:59;12.70;;;11.30;;
19525;SDS011;9907;42.676;26.348;2024-02-21T13:52:24;14.17;;;12.23;;
19525;SDS011;9907;42.676;26.348;2024-02-21T13:54:52;14.27;;;12.33;;
19525;SDS011;9907;42.676;26.348;2024-02-21T13:57:18;16.30;;;12.63;;
19525;SDS011;9907;42.676;26.348;2024-02-21T13:59:43;13.13;;;11.83;;
19525;SDS011;9907;42.676;26.348;2024-02-21T14:02:09;12.33;;;11.10;;
19525;SDS011;9907;42.676;26.348;2024-02-21T14:04:34;13.30;;;11.90;;
19525;SDS011;9907;42.676;26.348;2024-02-21T14:07:00;13.40;;;11.97;;
19525;SDS011;9907;42.676;26.348;2024-02-21T14:09:26;19.57;;;13.07;;
19525;SDS011;9907;42.676;26.348;2024-02-21T14:11:54;14.53;;;12.40;;
19525;SDS011;9907;42.676;26.348;2024-02-21T14:14:20;16.37;;;11.77;;
19525;SDS011;9907;42.676;26.348;2024-02-21T14:16:46;15.50;;;12.47;;
19525;SDS011;9907;42.676;26.348;2024-02-21T14:19:13;14.17;;;12.03;;
19525;SDS011;9907;42.676;26.348;2024-02-21T14:21:39;13.87;;;12.13;;
19525;SDS011;9907;42.676;26.348;2024-02-21T14:24:05;17.33;;;13.47;;
19525;SDS011;9907;42.676;26.348;2024-02-21T14:26:31;18.50;;;12.87;;
19525;SDS011;9907;42.676;26.348;2024-02-21T14:28:57;14.47;;;12.90;;
19525;SDS011;9907;42.676;26.348;2024-02-21T14:31:23;14.60;;;13.03;;
19525;SDS011;9907;42.676;26.348;2024-02-21T14:33:49;13.90;;;12.50;;
19525;SDS011;9907;42.676;26.348;2024-02-21T14:36:14;15.27;;;13.73;;
19525;SDS011;9907;42.676;26.348;2024-02-21T14:38:42;14.97;;;13.37;;
19525;SDS011;9907;42.676;26.348;2024-02-21T14:41:09;16.10;;;13.50;;
19525;SDS011;9907;42.676;26.348;2024-02-21T14:43:37;13.73;;;12.33;;
19525;SDS011;9907;42.676;26.348;2024-02-21T14:46:03;15.70;;;12.80;;
19525;SDS011;9907;42.676;26.348;2024-02-21T14:48:29;14.00;;;12.60;;
19525;SDS011;9907;42.676;26.348;2024-02-21T14:50:56;16.60;;;13.80;;
19525;SDS011;9907;42.676;26.348;2024-02-21T14:53:25;16.03;;;14.33;;
19525;SDS011;9907;42.676;26.348;2024-02-21T14:55:51;16.20;;;13.53;;
19525;SDS011;9907;42.676;26.348;2024-02-21T14:58:17;15.60;;;13.77;;
19525;SDS011;9907;42.676;26.348;2024-02-21T15:00:45;18.37;;;15.63;;
19525;SDS011;9907;42.676;26.348;2024-02-21T15:03:11;20.10;;;16.40;;
19525;SDS011;9907;42.676;26.348;2024-02-21T15:05:40;20.37;;;15.93;;
19525;SDS011;9907;42.676;26.348;2024-02-21T15:08:06;14.67;;;13.13;;
19525;SDS011;9907;42.676;26.348;2024-02-21T15:10:33;16.63;;;14.07;;
19525;SDS011;9907;42.676;26.348;2024-02-21T15:13:00;25.40;;;13.73;;
19525;SDS011;9907;42.676;26.348;2024-02-21T15:15:25;20.93;;;14.17;;
19525;SDS011;9907;42.676;26.348;2024-02-21T15:17:52;16.07;;;14.20;;
19525;SDS011;9907;42.676;26.348;2024-02-21T15:20:17;14.70;;;13.00;;
19525;SDS011;9907;42.676;26.348;2024-02-21T15:22:43;14.93;;;13.07;;
19525;SDS011;9907;42.676;26.348;2024-02-21T15:25:09;13.67;;;12.17;;
19525;SDS011;9907;42.676;26.348;2024-02-21T15:27:44;16.83;;;13.80;;
19525;SDS011;9907;42.676;26.348;2024-02-21T15:30:10;16.73;;;14.30;;
19525;SDS011;9907;42.676;26.348;2024-02-21T15:32:36;17.97;;;14.87;;
19525;SDS011;9907;42.676;26.348;2024-02-21T15:35:03;17.60;;;13.80;;
19525;SDS011;9907;42.676;26.348;2024-02-21T15:37:31;17.67;;;14.53;;
19525;SDS011;9907;42.676;26.348;2024-02-21T15:39:57;25.10;;;15.33;;
19525;SDS011;9907;42.676;26.348;2024-02-21T15:42:22;19.13;;;15.23;;
19525;SDS011;9907;42.676;26.348;2024-02-21T15:44:48;16.87;;;14.90;;
19525;SDS011;9907;42.676;26.348;2024-02-21T15:47:13;17.73;;;15.50;;
19525;SDS011;9907;42.676;26.348;2024-02-21T15:49:40;16.97;;;15.13;;
19525;SDS011;9907;42.676;26.348;2024-02-21T15:52:06;21.50;;;15.60;;
19525;SDS011;9907;42.676;26.348;2024-02-21T15:54:32;18.03;;;15.63;;
19525;SDS011;9907;42.676;26.348;2024-02-21T15:56:57;21.23;;;18.23;;
19525;SDS011;9907;42.676;26.348;2024-02-21T15:59:23;23.10;;;17.73;;
19525;SDS011;9907;42.676;26.348;2024-02-21T16:01:48;20.07;;;16.87;;
19525;SDS011;9907;42.676;26.348;2024-02-21T16:04:14;21.23;;;15.93;;
19525;SDS011;9907;42.676;26.348;2024-02-21T16:06:40;22.03;;;17.60;;
19525;SDS011;9907;42.676;26.348;2024-02-21T16:09:07;35.43;;;19.67;;
19525;SDS011;9907;42.676;26.348;2024-02-21T16:11:34;23.57;;;17.83;;
19525;SDS011;9907;42.676;26.348;2024-02-21T16:14:04;25.93;;;18.53;;
19525;SDS011;9907;42.676;26.348;2024-02-21T16:16:30;22.70;;;19.13;;
19525;SDS011;9907;42.676;26.348;2024-02-21T16:18:58;24.40;;;20.90;;
19525;SDS011;9907;42.676;26.348;2024-02-21T16:21:24;31.20;;;24.93;;
19525;SDS011;9907;42.676;26.348;2024-02-21T16:23:49;28.63;;;24.17;;
19525;SDS011;9907;42.676;26.348;2024-02-21T16:26:15;26.30;;;21.40;;
19525;SDS011;9907;42.676;26.348;2024-02-21T16:28:43;32.40;;;23.13;;
19525;SDS011;9907;42.676;26.348;2024-02-21T16:31:10;41.30;;;27.77;;
19525;SDS011;9907;42.676;26.348;2024-02-21T16:33:37;35.13;;;26.00;;
19525;SDS011;9907;42.676;26.348;2024-02-21T16:36:05;34.17;;;24.57;;
19525;SDS011;9907;42.676;26.348;2024-02-21T16:38:32;38.93;;;26.77;;
19525;SDS011;9907;42.676;26.348;2024-02-21T16:41:21;28.63;;;22.10;;
19525;SDS011;9907;42.676;26.348;2024-02-21T16:43:47;22.53;;;20.10;;
19525;SDS011;9907;42.676;26.348;2024-02-21T16:46:15;26.40;;;20.10;;
19525;SDS011;9907;42.676;26.348;2024-02-21T16:48:41;24.90;;;20.00;;
19525;SDS011;9907;42.676;26.348;2024-02-21T16:51:06;23.90;;;20.97;;
19525;SDS011;9907;42.676;26.348;2024-02-21T16:53:33;26.00;;;20.07;;
19525;SDS011;9907;42.676;26.348;2024-02-21T16:55:59;24.07;;;19.73;;
19525;SDS011;9907;42.676;26.348;2024-02-21T16:58:25;21.73;;;19.17;;
19525;SDS011;9907;42.676;26.348;2024-02-21T17:00:50;25.93;;;21.60;;
19525;SDS011;9907;42.676;26.348;2024-02-21T17:03:18;25.27;;;20.63;;
19525;SDS011;9907;42.676;26.348;2024-02-21T17:05:45;26.53;;;20.93;;
19525;SDS011;9907;42.676;26.348;2024-02-21T17:08:11;37.60;;;25.20;;
19525;SDS011;9907;42.676;26.348;2024-02-21T17:10:36;41.93;;;24.90;;
19525;SDS011;9907;42.676;26.348;2024-02-21T17:13:02;32.53;;;26.53;;
19525;SDS011;9907;42.676;26.348;2024-02-21T17:15:29;31.27;;;25.17;;
19525;SDS011;9907;42.676;26.348;2024-02-21T17:17:54;33.10;;;24.53;;
19525;SDS011;9907;42.676;26.348;2024-02-21T17:20:20;34.13;;;25.57;;
19525;SDS011;9907;42.676;26.348;2024-02-21T17:22:45;42.33;;;30.53;;
19525;SDS011;9907;42.676;26.348;2024-02-21T17:25:11;35.87;;;28.43;;
19525;SDS011;9907;42.676;26.348;2024-02-21T17:27:37;34.00;;;27.13;;
19525;SDS011;9907;42.676;26.348;2024-02-21T17:30:04;33.33;;;28.13;;